createdAt,value
2022-12-15T00:02:19.900Z,29.63
2022-12-15T00:05:06.722Z,26.38
2022-12-15T00:07:53.193Z,26.10
2022-12-15T00:10:39.461Z,27.45
2022-12-15T00:13:32.641Z,26.92
2022-12-15T00:16:18.321Z,32.00
2022-12-15T00:19:04.277Z,28.67
2022-12-15T00:21:50.713Z,29.55
2022-12-15T00:24:36.330Z,28.45
2022-12-15T00:27:21.837Z,29.73
2022-12-15T00:30:07.447Z,30.13
2022-12-15T00:32:52.995Z,30.42
2022-12-15T00:35:38.530Z,27.40
2022-12-15T00:38:33.801Z,26.45
2022-12-15T00:41:01.440Z,31.73
2022-12-15T00:43:30.404Z,29.02
2022-12-15T00:46:16.787Z,31.58
2022-12-15T00:48:44.066Z,32.33
2022-12-15T00:51:11.787Z,28.20
2022-12-15T00:53:57.282Z,29.20
2022-12-15T00:56:43.415Z,28.65
2022-12-15T00:59:30.674Z,28.60
2022-12-15T01:02:16.004Z,26.58
2022-12-15T01:05:01.789Z,26.08
2022-12-15T01:07:49.433Z,28.73
2022-12-15T01:10:36.468Z,25.58
2022-12-15T01:13:23.144Z,26.27
2022-12-15T01:19:50.590Z,27.20
2022-12-15T01:22:17.380Z,30.05
2022-12-15T01:24:44.694Z,28.20
2022-12-15T01:27:11.494Z,27.75
2022-12-15T01:29:38.633Z,27.40
2022-12-15T01:32:05.816Z,27.25
2022-12-15T01:34:32.623Z,28.02
2022-12-15T01:36:59.467Z,28.23
2022-12-15T01:39:46.301Z,28.33
2022-12-15T01:42:13.779Z,29.83
2022-12-15T01:44:40.606Z,34.42
2022-12-15T01:47:12.261Z,29.67
2022-12-15T01:49:40.092Z,29.88
2022-12-15T01:52:09.498Z,28.95
2022-12-15T01:54:43.416Z,30.58
2022-12-15T01:57:16.143Z,29.92
2022-12-15T01:59:48.829Z,30.30
2022-12-15T02:02:16.908Z,28.55
2022-12-15T02:04:45.761Z,29.73
2022-12-15T02:07:14.656Z,28.55
2022-12-15T02:09:43.876Z,26.50
2022-12-15T02:12:48.412Z,32.00
2022-12-15T02:15:26.686Z,28.77
2022-12-15T02:18:15.273Z,28.55
2022-12-15T02:21:02.990Z,31.23
2022-12-15T02:23:33.300Z,34.80
2022-12-15T02:26:25.349Z,28.05
2022-12-15T02:29:23.261Z,29.35
2022-12-15T02:32:00.877Z,30.88
2022-12-15T02:34:37.198Z,30.52
2022-12-15T02:37:22.678Z,27.67
2022-12-15T02:59:55.468Z,28.48
2022-12-15T03:02:26.656Z,31.80
2022-12-15T03:04:53.958Z,33.45
2022-12-15T03:07:23.694Z,33.25
2022-12-15T03:09:50.687Z,29.98
2022-12-15T03:12:17.428Z,30.42
2022-12-15T03:14:44.304Z,31.65
2022-12-15T03:17:11.127Z,33.95
2022-12-15T03:19:37.984Z,34.72
2022-12-15T03:22:05.238Z,32.05
2022-12-15T03:24:32.302Z,29.83
2022-12-15T03:26:59.157Z,33.55
2022-12-15T03:29:26.272Z,33.22
2022-12-15T03:31:53.144Z,33.13
2022-12-15T03:34:19.975Z,32.83
2022-12-15T03:36:47.365Z,31.48
2022-12-15T03:39:14.302Z,31.92
2022-12-15T03:41:41.747Z,32.55
2022-12-15T03:44:08.637Z,31.40
2022-12-15T03:46:35.578Z,31.35
2022-12-15T03:49:02.525Z,30.67
2022-12-15T03:51:29.438Z,30.98
2022-12-15T03:53:56.227Z,30.95
2022-12-15T03:56:23.055Z,35.20
2022-12-15T03:58:50.002Z,32.90
2022-12-15T04:01:30.331Z,34.88
2022-12-15T04:04:00.885Z,36.28
2022-12-15T04:06:29.131Z,45.20
2022-12-15T04:08:56.238Z,35.55
2022-12-15T04:11:23.567Z,39.70
2022-12-15T04:13:50.454Z,36.53
2022-12-15T04:16:20.178Z,37.70
2022-12-15T04:19:08.000Z,39.53
2022-12-15T04:21:34.895Z,33.45
2022-12-15T04:24:20.328Z,30.60
2022-12-15T04:27:05.906Z,35.97
2022-12-15T04:29:51.419Z,42.47
2022-12-15T04:32:37.298Z,32.88
2022-12-15T04:35:23.029Z,34.85
2022-12-15T04:38:08.295Z,35.20
2022-12-15T04:40:53.867Z,32.40
2022-12-15T04:43:39.436Z,28.92
2022-12-15T04:46:25.262Z,35.75
2022-12-15T04:49:10.890Z,34.57
2022-12-15T04:51:57.140Z,33.13
2022-12-15T04:57:31.839Z,33.15
2022-12-15T05:00:23.375Z,29.00
2022-12-15T05:03:11.328Z,28.98
2022-12-15T05:06:00.639Z,31.70
2022-12-15T05:08:50.805Z,30.65
2022-12-15T05:11:44.364Z,31.63
2022-12-15T05:14:33.152Z,26.80
2022-12-15T05:17:21.739Z,30.35
2022-12-15T05:20:11.368Z,29.52
2022-12-15T05:22:56.693Z,25.33
2022-12-15T05:25:46.932Z,28.80
2022-12-15T05:28:34.533Z,30.80
2022-12-15T05:31:26.228Z,29.35
2022-12-15T05:34:04.480Z,30.20
2022-12-15T05:36:37.920Z,27.95
2022-12-15T05:39:05.187Z,27.00
2022-12-15T05:41:32.216Z,30.00
2022-12-15T05:43:59.409Z,30.17
2022-12-15T05:46:26.413Z,27.98
2022-12-15T05:48:59.745Z,29.75
2022-12-15T05:51:26.723Z,27.23
2022-12-15T05:53:54.661Z,28.75
2022-12-15T05:56:21.706Z,31.23
2022-12-15T05:58:55.456Z,29.75
2022-12-15T06:01:23.644Z,29.52
2022-12-15T06:03:51.242Z,30.45
2022-12-15T06:06:21.677Z,27.52
2022-12-15T06:08:52.619Z,28.20
2022-12-15T06:11:20.661Z,27.85
2022-12-15T06:13:48.255Z,28.10
2022-12-15T06:16:21.379Z,26.05
2022-12-15T06:18:52.891Z,33.70
2022-12-15T06:21:33.159Z,27.08
2022-12-15T06:24:06.421Z,31.00
2022-12-15T06:26:36.571Z,25.13
2022-12-15T06:29:06.980Z,24.73
2022-12-15T06:31:37.807Z,31.88
2022-12-15T06:34:08.155Z,30.80
2022-12-15T06:36:36.419Z,30.52
2022-12-15T06:39:11.007Z,31.90
2022-12-15T06:41:38.919Z,30.75
2022-12-15T06:44:06.266Z,33.92
2022-12-15T06:46:39.820Z,34.80
2022-12-15T06:49:08.361Z,30.77
2022-12-15T06:51:36.490Z,33.25
2022-12-15T06:54:03.671Z,33.63
2022-12-15T06:56:39.032Z,32.97
2022-12-15T06:59:07.553Z,32.97
2022-12-15T07:01:34.882Z,34.72
2022-12-15T07:04:07.578Z,33.00
2022-12-15T07:06:39.095Z,33.60
2022-12-15T07:09:12.602Z,35.00
2022-12-15T07:11:40.647Z,38.20
2022-12-15T07:14:07.725Z,47.55
2022-12-15T07:16:34.964Z,45.47
2022-12-15T07:19:04.083Z,47.60
2022-12-15T07:21:32.771Z,54.80
2022-12-15T07:24:01.179Z,47.38
2022-12-15T07:26:28.917Z,52.28
2022-12-15T07:28:56.633Z,49.55
2022-12-15T07:31:26.045Z,46.92
2022-12-15T07:33:59.755Z,51.42
2022-12-15T07:36:27.881Z,97.13
2022-12-15T07:39:03.946Z,56.20
2022-12-15T07:41:32.129Z,53.25
2022-12-15T07:43:59.870Z,50.85
2022-12-15T07:46:31.647Z,51.70
2022-12-15T07:49:00.510Z,53.33
2022-12-15T07:51:27.854Z,51.50
2022-12-15T07:53:55.077Z,51.63
2022-12-15T07:56:22.260Z,46.83
2022-12-15T07:58:54.224Z,56.47
2022-12-15T08:01:21.552Z,46.85
2022-12-15T08:03:51.150Z,49.85
2022-12-15T08:06:22.998Z,52.22
2022-12-15T08:08:51.434Z,53.97
2022-12-15T08:11:21.138Z,54.95
2022-12-15T08:14:03.616Z,51.55
2022-12-15T08:16:36.825Z,51.35
2022-12-15T08:19:05.539Z,64.32
2022-12-15T08:21:33.697Z,52.60
2022-12-15T08:24:03.554Z,52.83
2022-12-15T08:26:31.422Z,49.95
2022-12-15T08:31:53.298Z,47.83
2022-12-15T08:34:22.616Z,50.30
2022-12-15T08:36:49.581Z,42.80
2022-12-15T08:39:16.732Z,42.17
2022-12-15T08:41:43.977Z,46.65
2022-12-15T08:44:11.231Z,51.95
2022-12-15T08:46:41.120Z,48.95
2022-12-15T08:49:10.236Z,46.53
2022-12-15T08:51:37.681Z,50.35
2022-12-15T08:54:05.108Z,48.80
2022-12-15T08:56:32.244Z,47.72
2022-12-15T08:59:01.995Z,46.28
2022-12-15T09:01:32.177Z,43.22
2022-12-15T09:04:00.188Z,46.80
2022-12-15T09:06:30.692Z,42.03
2022-12-15T09:08:59.968Z,49.92
2022-12-15T09:11:27.894Z,46.45
2022-12-15T09:13:55.254Z,42.63
2022-12-15T09:16:22.802Z,46.25
2022-12-15T09:18:55.872Z,46.08
2022-12-15T09:21:29.042Z,44.03
2022-12-15T09:24:00.613Z,42.63
2022-12-15T09:26:35.310Z,42.47
2022-12-15T09:29:02.563Z,45.05
2022-12-15T09:31:37.033Z,45.25
2022-12-15T09:34:04.928Z,41.75
2022-12-15T09:36:33.187Z,46.20
2022-12-15T09:39:08.203Z,40.30
2022-12-15T09:41:36.441Z,49.33
2022-12-15T09:44:18.029Z,48.17
2022-12-15T09:47:05.681Z,47.15
2022-12-15T09:49:50.758Z,48.22
2022-12-15T09:52:32.418Z,46.10
2022-12-15T09:55:05.661Z,48.42
2022-12-15T09:58:14.352Z,49.42
2022-12-15T10:00:55.157Z,48.50
2022-12-15T10:03:47.739Z,44.90
2022-12-15T10:06:40.180Z,46.42
2022-12-15T10:09:33.387Z,40.10
2022-12-15T10:12:13.832Z,44.13
2022-12-15T10:15:06.197Z,47.72
2022-12-15T10:17:45.630Z,46.83
2022-12-15T10:20:22.498Z,48.90
2022-12-15T10:22:53.881Z,44.72
2022-12-15T10:25:29.787Z,45.42
2022-12-15T10:28:16.076Z,45.57
2022-12-15T10:31:00.600Z,42.45
2022-12-15T10:33:36.717Z,45.13
2022-12-15T10:36:11.135Z,48.28
2022-12-15T10:38:43.575Z,37.78
2022-12-15T10:41:17.842Z,41.70
2022-12-15T10:43:47.755Z,42.40
2022-12-15T10:46:25.110Z,42.70
2022-12-15T10:49:22.339Z,39.33
2022-12-15T10:51:59.544Z,43.92
2022-12-15T10:54:43.721Z,39.45
2022-12-15T10:57:28.158Z,43.95
2022-12-15T11:00:28.651Z,43.83
2022-12-15T11:02:56.316Z,41.40
2022-12-15T11:05:24.151Z,40.35
2022-12-15T11:08:12.890Z,40.33
2022-12-15T11:11:12.434Z,40.13
2022-12-15T11:13:40.459Z,45.92
2022-12-15T11:16:25.932Z,39.35
2022-12-15T11:19:06.017Z,43.60
2022-12-15T11:21:44.500Z,47.63
2022-12-15T11:24:44.865Z,42.53
2022-12-15T11:27:35.989Z,42.80
2022-12-15T11:30:17.388Z,39.60
2022-12-15T11:33:04.810Z,34.92
2022-12-15T11:36:02.743Z,39.45
2022-12-15T11:38:37.932Z,33.65
2022-12-15T11:41:28.485Z,34.75
2022-12-15T11:44:17.998Z,31.48
2022-12-15T11:47:10.403Z,36.80
2022-12-15T11:49:53.146Z,36.67
2022-12-15T11:52:43.053Z,35.63
2022-12-15T11:55:16.609Z,38.17
2022-12-15T11:58:17.671Z,37.83
2022-12-15T12:01:03.739Z,36.20
2022-12-15T12:03:48.360Z,41.33
2022-12-15T12:06:28.789Z,40.95
2022-12-15T12:09:13.347Z,38.60
2022-12-15T12:11:50.692Z,39.17
2022-12-15T12:14:17.713Z,43.72
2022-12-15T12:17:06.066Z,36.50
2022-12-15T12:19:50.712Z,39.22
2022-12-15T12:22:41.799Z,42.95
2022-12-15T12:25:31.857Z,38.70
2022-12-15T12:28:03.673Z,44.50
2022-12-15T12:30:41.021Z,48.78
2022-12-15T12:33:38.900Z,39.30
2022-12-15T12:36:14.539Z,38.85
2022-12-15T12:38:56.140Z,42.47
2022-12-15T12:41:47.146Z,38.38
2022-12-15T12:44:25.094Z,38.53
2022-12-15T12:46:55.736Z,40.55
2022-12-15T12:49:33.001Z,42.90
2022-12-15T12:52:08.750Z,43.25
2022-12-15T12:54:35.733Z,39.58
2022-12-15T12:57:11.891Z,38.80
2022-12-15T12:59:56.246Z,42.15
2022-12-15T13:02:26.726Z,39.50
2022-12-15T13:05:04.578Z,39.85
2022-12-15T13:07:37.843Z,42.85
2022-12-15T13:10:07.650Z,38.42
2022-12-15T13:12:54.328Z,38.53
2022-12-15T13:15:27.639Z,36.20
2022-12-15T13:18:17.102Z,38.65
2022-12-15T13:23:40.184Z,42.95
2022-12-15T13:26:07.112Z,38.45
2022-12-15T13:28:37.232Z,42.00
2022-12-15T13:31:20.915Z,44.42
2022-12-15T13:33:57.309Z,38.90
2022-12-15T13:36:43.658Z,40.35
2022-12-15T13:39:16.194Z,39.75
2022-12-15T13:42:23.851Z,38.70
2022-12-15T13:44:51.424Z,42.58
2022-12-15T13:47:30.966Z,40.92
2022-12-15T13:50:15.199Z,41.17
2022-12-15T13:53:17.923Z,42.10
2022-12-15T13:59:50.399Z,37.17
2022-12-15T14:02:28.643Z,38.03
2022-12-15T14:05:17.393Z,39.65
2022-12-15T14:07:54.551Z,39.20
2022-12-15T14:10:25.455Z,39.38
2022-12-15T14:12:55.484Z,38.53
2022-12-15T14:15:30.074Z,39.42
2022-12-15T14:17:57.855Z,39.50
2022-12-15T14:20:38.616Z,39.72
2022-12-15T14:23:48.650Z,40.33
2022-12-15T14:26:30.994Z,41.72
2022-12-15T14:29:03.097Z,41.88
2022-12-15T14:31:31.043Z,41.38
2022-12-15T14:34:06.279Z,42.53
2022-12-15T14:36:33.913Z,39.85
2022-12-15T14:39:04.776Z,42.22
2022-12-15T14:41:38.527Z,40.50
2022-12-15T14:44:31.943Z,41.38
2022-12-15T14:47:00.292Z,38.83
2022-12-15T14:49:48.394Z,36.78
2022-12-15T14:52:43.680Z,37.80
2022-12-15T14:55:37.064Z,40.08
2022-12-15T14:58:39.973Z,37.00
2022-12-15T15:01:41.973Z,39.67
2022-12-15T15:03:09.451Z,40.17
2022-12-15T15:04:30.539Z,38.30
2022-12-15T15:06:59.727Z,41.60
2022-12-15T15:09:32.524Z,38.92
2022-12-15T15:12:08.817Z,40.08
2022-12-15T15:14:47.326Z,46.50
2022-12-15T15:17:24.886Z,42.97
2022-12-15T15:19:52.113Z,41.97
2022-12-15T15:22:41.194Z,45.85
2022-12-15T15:25:41.122Z,43.40
2022-12-15T15:28:20.308Z,45.97
2022-12-15T15:30:58.047Z,44.88
2022-12-15T15:33:26.300Z,47.97
2022-12-15T15:35:58.265Z,47.00
2022-12-15T15:38:29.467Z,42.40
2022-12-15T15:41:00.350Z,44.45
2022-12-15T15:43:28.672Z,45.38
2022-12-15T15:46:02.854Z,44.08
2022-12-15T15:48:44.935Z,43.00
2022-12-15T15:51:12.390Z,46.83
2022-12-15T15:53:39.551Z,40.95
2022-12-15T15:56:10.428Z,42.97
2022-12-15T15:58:37.468Z,44.90
2022-12-15T16:01:09.686Z,45.33
2022-12-15T16:03:40.257Z,43.35
2022-12-15T16:06:21.873Z,46.72
2022-12-15T16:08:54.001Z,43.65
2022-12-15T16:11:27.767Z,43.25
2022-12-15T16:13:57.034Z,43.15
2022-12-15T16:16:30.369Z,48.90
2022-12-15T16:18:57.250Z,43.00
2022-12-15T16:21:27.275Z,45.85
2022-12-15T16:23:56.583Z,47.03
2022-12-15T16:26:30.159Z,43.92
2022-12-15T16:28:57.310Z,61.78
2022-12-15T16:31:40.890Z,43.75
2022-12-15T16:34:08.398Z,46.10
2022-12-15T16:36:35.485Z,38.17
2022-12-15T16:39:02.901Z,42.85
2022-12-15T16:41:29.736Z,44.70
2022-12-15T16:43:56.526Z,45.72
2022-12-15T16:46:23.450Z,41.47
2022-12-15T16:48:51.899Z,43.83
2022-12-15T16:51:37.099Z,45.05
2022-12-15T16:54:04.419Z,43.28
2022-12-15T16:56:31.263Z,48.85
2022-12-15T16:59:30.971Z,45.88
2022-12-15T17:01:45.408Z,51.70
2022-12-15T17:04:12.562Z,50.92
2022-12-15T17:06:39.943Z,46.25
2022-12-15T17:09:08.918Z,46.15
2022-12-15T17:11:36.174Z,50.88
2022-12-15T17:14:03.077Z,50.17
2022-12-15T17:16:30.282Z,47.92
2022-12-15T17:18:57.397Z,52.97
2022-12-15T17:21:44.668Z,55.78
2022-12-15T17:24:15.431Z,50.53
2022-12-15T17:26:44.450Z,57.70
2022-12-15T17:29:23.449Z,50.45
2022-12-15T17:31:50.564Z,49.90
2022-12-15T17:34:32.858Z,49.05
2022-12-15T17:37:02.934Z,48.03
2022-12-15T17:39:30.855Z,51.03
2022-12-15T17:42:01.128Z,51.90
2022-12-15T17:44:36.763Z,51.08
2022-12-15T17:47:06.640Z,57.42
2022-12-15T17:49:36.346Z,46.38
2022-12-15T17:52:16.777Z,48.15
2022-12-15T17:54:43.870Z,47.20
2022-12-15T17:57:12.531Z,52.67
2022-12-15T17:59:39.521Z,89.78
2022-12-15T18:02:06.886Z,56.28
2022-12-15T18:04:33.732Z,48.90
2022-12-15T18:07:02.337Z,44.58
2022-12-15T18:09:30.939Z,45.35
2022-12-15T18:11:57.910Z,41.03
2022-12-15T18:14:24.979Z,40.08
2022-12-15T18:16:51.854Z,51.10
2022-12-15T18:19:18.805Z,48.65
2022-12-15T18:21:45.604Z,47.00
2022-12-15T18:24:17.383Z,48.95
2022-12-15T18:26:45.246Z,44.50
2022-12-15T18:29:14.486Z,50.20
2022-12-15T18:31:42.067Z,46.70
2022-12-15T18:34:15.053Z,46.35
2022-12-15T18:36:43.172Z,47.53
2022-12-15T18:39:23.620Z,55.63
2022-12-15T18:41:53.150Z,48.42
2022-12-15T18:44:28.816Z,49.65
2022-12-15T18:46:55.839Z,51.47
2022-12-15T18:49:23.428Z,49.63
2022-12-15T18:51:50.562Z,53.03
2022-12-15T18:54:20.304Z,52.03
2022-12-15T18:56:47.135Z,50.95
2022-12-15T18:59:16.369Z,50.17
2022-12-15T19:01:45.768Z,55.17
2022-12-15T19:04:13.290Z,54.92
2022-12-15T19:06:41.179Z,54.50
2022-12-15T19:09:15.654Z,56.65
2022-12-15T19:12:03.459Z,59.30
2022-12-15T19:14:43.023Z,57.95
2022-12-15T19:17:34.452Z,59.85
2022-12-15T19:20:20.348Z,52.97
2022-12-15T19:22:48.691Z,107.85
2022-12-15T19:25:25.413Z,67.50
2022-12-15T19:27:58.715Z,60.88
2022-12-15T19:30:37.059Z,68.38
2022-12-15T19:33:08.578Z,70.90
2022-12-15T19:35:36.791Z,71.00
2022-12-15T19:38:04.358Z,70.78
2022-12-15T19:40:33.754Z,69.97
2022-12-15T19:43:02.169Z,66.32
2022-12-15T19:45:31.250Z,72.68
2022-12-15T19:47:58.628Z,69.38
2022-12-15T19:50:33.486Z,68.97
2022-12-15T19:53:02.123Z,66.03
2022-12-15T19:55:32.731Z,68.25
2022-12-15T19:58:00.813Z,58.42
2022-12-15T20:00:28.133Z,58.90
2022-12-15T20:02:55.747Z,54.70
2022-12-15T20:05:24.305Z,60.80
2022-12-15T20:07:53.555Z,62.35
2022-12-15T20:10:27.870Z,62.70
2022-12-15T20:12:59.702Z,52.50
2022-12-15T20:15:26.788Z,55.40
2022-12-15T20:17:56.708Z,54.75
2022-12-15T20:20:25.843Z,58.40
2022-12-15T20:22:56.225Z,52.65
2022-12-15T20:25:33.459Z,62.90
2022-12-15T20:28:01.056Z,56.47
2022-12-15T20:30:35.453Z,55.28
2022-12-15T20:33:04.315Z,55.15
2022-12-15T20:35:34.611Z,56.20
2022-12-15T20:38:13.457Z,53.90
2022-12-15T20:40:40.350Z,51.35
2022-12-15T20:43:16.266Z,49.45
2022-12-15T20:45:44.735Z,50.42
2022-12-15T20:48:15.651Z,50.78
2022-12-15T20:50:48.641Z,55.45
2022-12-15T20:53:26.414Z,52.95
2022-12-15T20:55:54.905Z,46.70
2022-12-15T20:58:21.920Z,53.42
2022-12-15T21:00:49.979Z,48.53
2022-12-15T21:03:27.455Z,49.50
2022-12-15T21:05:56.536Z,48.92
2022-12-15T21:08:29.865Z,46.00
2022-12-15T21:11:01.568Z,45.58
2022-12-15T21:13:33.306Z,43.20
2022-12-15T21:16:00.645Z,49.33
2022-12-15T21:24:00.298Z,45.40
2022-12-15T21:26:27.624Z,47.50
2022-12-15T21:28:59.383Z,47.20
2022-12-15T21:31:26.464Z,51.03
2022-12-15T21:33:53.468Z,57.70
2022-12-15T21:36:22.438Z,46.00
2022-12-15T21:38:51.968Z,42.80
2022-12-15T21:41:20.758Z,45.03
2022-12-15T21:43:48.164Z,41.50
2022-12-15T21:46:17.496Z,48.55
2022-12-15T21:49:03.703Z,42.20
2022-12-15T21:51:34.990Z,38.75
2022-12-15T21:54:02.501Z,39.53
2022-12-15T21:56:29.672Z,40.55
2022-12-15T21:58:57.221Z,36.75
2022-12-15T22:01:28.593Z,39.70
2022-12-15T22:03:57.980Z,36.13
2022-12-15T22:06:27.643Z,38.65
2022-12-15T22:09:01.156Z,38.38
2022-12-15T22:11:31.705Z,34.65
2022-12-15T22:14:03.212Z,38.47
2022-12-15T22:16:30.031Z,36.15
2022-12-15T22:18:58.471Z,36.10
2022-12-15T22:21:25.802Z,37.20
2022-12-15T22:23:52.717Z,38.22
2022-12-15T22:26:31.096Z,36.33
2022-12-15T22:29:01.276Z,32.97
2022-12-15T22:31:29.066Z,34.55
2022-12-15T22:33:55.937Z,32.00
2022-12-15T22:36:22.712Z,33.28
2022-12-15T22:38:49.721Z,34.67
2022-12-15T22:41:24.004Z,34.80
2022-12-15T22:43:54.033Z,36.10
2022-12-15T22:46:24.332Z,34.38
2022-12-15T22:48:54.786Z,31.05
2022-12-15T22:51:21.945Z,33.05
2022-12-15T22:53:48.869Z,30.55
2022-12-15T22:56:26.279Z,33.92
2022-12-15T22:59:02.670Z,30.30
2022-12-15T23:01:29.988Z,33.17
2022-12-15T23:03:57.083Z,31.40
2022-12-15T23:06:26.376Z,28.40
2022-12-15T23:08:56.004Z,24.55
2022-12-15T23:11:39.412Z,29.45
2022-12-15T23:14:09.237Z,32.70
2022-12-15T23:16:37.181Z,28.63
2022-12-15T23:19:05.340Z,31.67
2022-12-15T23:21:32.458Z,28.42
2022-12-15T23:23:59.698Z,29.73
2022-12-15T23:26:26.947Z,31.20
2022-12-15T23:28:55.191Z,26.83
2022-12-15T23:31:22.760Z,29.33
2022-12-15T23:33:52.172Z,25.08
2022-12-15T23:36:19.236Z,30.17
2022-12-15T23:38:46.408Z,26.98
2022-12-15T23:41:18.022Z,27.98
2022-12-15T23:43:45.214Z,27.58
2022-12-15T23:46:12.183Z,27.98
2022-12-15T23:48:42.046Z,25.55
2022-12-15T23:51:11.837Z,23.65
2022-12-15T23:53:39.253Z,23.35
2022-12-15T23:56:12.485Z,22.13
2022-12-15T23:58:40.558Z,22.48
